This is the latest recevied weather packets stored in our database for station/object WC4PEM-12. If no packets are shown the sender has not sent any weather packets the latest 10 day(s).
| Time | Temp. | Humidity | Pressure | Rain* | Wind** | Luminosity | Snow |
|---|---|---|---|---|---|---|---|
| 1777869180 | 19.44° C | 84% | 1016.6 hPa | 0 mm | - | - | - |
| 1777868880 | 19.44° C | 84% | 1016.8 hPa | 0 mm | - | - | - |
| 1777868639 | 19.44° C | 84% | 1016.9 hPa | 0 mm | - | - | - |
| 1777868580 | 19.44° C | 84% | 1016.9 hPa | 0 mm | - | - | - |
| 1777868280 | 19.44° C | 84% | 1016.8 hPa | 0 mm | - | - | - |
| 1777867980 | 19.44° C | 84% | 1016.8 hPa | 0 mm | - | - | - |
| 1777867949 | 20° C | 84% | 1016.7 hPa | 0 mm | - | - | - |
| 1777867729 | 20° C | 84% | 1016.6 hPa | 0 mm | - | - | - |
| 1777867680 | 20° C | 84% | 1016.6 hPa | 0 mm | - | - | - |
| 1777867380 | 20° C | 84% | 1016.7 hPa | 0 mm | - | - | - |
| 1777867080 | 20° C | 83% | 1016.7 hPa | 0 mm | - | - | - |
| 1777866780 | 20° C | 83% | 1017.1 hPa | 0 mm | - | - | - |
| 1777866480 | 20° C | 83% | 1017.2 hPa | 0 mm | - | - | - |
| 1777865880 | 20° C | 83% | 1016.6 hPa | 0 mm | - | - | - |
| 1777865580 | 20° C | 83% | 1016.8 hPa | 0 mm | - | - | - |
| 1777865280 | 20° C | 83% | 1016.7 hPa | 0 mm | - | - | - |
| 1777865260 | 20° C | 83% | 1016.9 hPa | 0 mm | - | - | - |
| 1777847881 | 23.89° C | 71% | 1015.2 hPa | 0 mm | - | - | - |
| 1777847281 | 24.44° C | 71% | 1015.3 hPa | 0 mm | - | - | - |
| 1777846981 | 24.44° C | 70% | 1015.2 hPa | 0 mm | - | - | - |
| 1777846681 | 25° C | 69% | 1015.2 hPa | 0 mm | - | - | - |
| 1777846399 | 26.11° C | 66% | 1015.2 hPa | 0 mm | - | - | - |
| 1777846381 | 25° C | 68% | 1015.1 hPa | 0 mm | - | - | - |
| 1777846081 | 25.56° C | 68% | 1015.1 hPa | 0 mm | - | - | - |
| 1777845181 | 26.11° C | 66% | 1015.2 hPa | 0 mm | - | - | - |
* Rain latest hour (hover to see other rain measurements)
** Current wind speed in m/s (hover to see current wind gust speed)